sensor_id;sensor_type;location;lat;lon;timestamp;P1;durP1;ratioP1;P2;durP2;ratioP2
67429;SDS011;54298;52.076;5.264;2023-08-07T00:00:37;7.1;;;2.1;;
67429;SDS011;54298;52.076;5.264;2023-08-07T00:02:15;6.9;;;2.4;;
67429;SDS011;54298;52.076;5.264;2023-08-07T00:05:27;10.9;;;2.8;;
67429;SDS011;54298;52.076;5.264;2023-08-07T00:07:03;8.9;;;3.0;;
67429;SDS011;54298;52.076;5.264;2023-08-07T00:08:40;10.4;;;3.1;;
67429;SDS011;54298;52.076;5.264;2023-08-07T00:11:52;8.5;;;2.5;;
67429;SDS011;54298;52.076;5.264;2023-08-07T00:13:28;10.3;;;3.0;;
67429;SDS011;54298;52.076;5.264;2023-08-07T00:15:05;8.0;;;3.0;;
67429;SDS011;54298;52.076;5.264;2023-08-07T00:16:42;8.71;;;2.7;;
67429;SDS011;54298;52.076;5.264;2023-08-07T00:19:55;7.3;;;3.1;;
67429;SDS011;54298;52.076;5.264;2023-08-07T00:21:31;7.5;;;3.0;;
67429;SDS011;54298;52.076;5.264;2023-08-07T00:23:07;8.1;;;2.7;;
67429;SDS011;54298;52.076;5.264;2023-08-07T00:26:19;9.0;;;2.8;;
67429;SDS011;54298;52.076;5.264;2023-08-07T00:27:56;10.7;;;2.8;;
67429;SDS011;54298;52.076;5.264;2023-08-07T00:29:32;10.9;;;3.2;;
67429;SDS011;54298;52.076;5.264;2023-08-07T00:32:45;10.1;;;3.4;;
67429;SDS011;54298;52.076;5.264;2023-08-07T00:34:21;9.6;;;3.1;;
67429;SDS011;54298;52.076;5.264;2023-08-07T00:35:57;9.4;;;3.7;;
67429;SDS011;54298;52.076;5.264;2023-08-07T00:37:33;7.7;;;2.9;;
67429;SDS011;54298;52.076;5.264;2023-08-07T00:40:45;8.4;;;3.1;;
67429;SDS011;54298;52.076;5.264;2023-08-07T00:42:21;10.21;;;3.4;;
67429;SDS011;54298;52.076;5.264;2023-08-07T00:43:57;9.9;;;2.9;;
67429;SDS011;54298;52.076;5.264;2023-08-07T00:47:16;11.5;;;3.0;;
67429;SDS011;54298;52.076;5.264;2023-08-07T00:48:52;6.1;;;2.8;;
67429;SDS011;54298;52.076;5.264;2023-08-07T00:50:29;6.2;;;3.1;;
67429;SDS011;54298;52.076;5.264;2023-08-07T00:53:42;8.2;;;2.6;;
67429;SDS011;54298;52.076;5.264;2023-08-07T00:55:19;10.3;;;3.0;;
67429;SDS011;54298;52.076;5.264;2023-08-07T00:56:55;9.4;;;2.9;;
67429;SDS011;54298;52.076;5.264;2023-08-07T00:58:36;12.5;;;3.0;;
67429;SDS011;54298;52.076;5.264;2023-08-07T01:01:50;6.6;;;2.5;;
67429;SDS011;54298;52.076;5.264;2023-08-07T01:03:28;12.2;;;3.2;;
67429;SDS011;54298;52.076;5.264;2023-08-07T01:05:04;6.1;;;2.6;;
67429;SDS011;54298;52.076;5.264;2023-08-07T01:08:17;9.21;;;2.9;;
67429;SDS011;54298;52.076;5.264;2023-08-07T01:09:53;8.31;;;3.7;;
67429;SDS011;54298;52.076;5.264;2023-08-07T01:11:31;7.8;;;2.21;;
67429;SDS011;54298;52.076;5.264;2023-08-07T01:13:13;10.7;;;3.4;;
67429;SDS011;54298;52.076;5.264;2023-08-07T01:16:45;10.6;;;5.11;;
67429;SDS011;54298;52.076;5.264;2023-08-07T01:18:26;5.7;;;2.9;;
67429;SDS011;54298;52.076;5.264;2023-08-07T01:20:04;6.4;;;2.4;;
67429;SDS011;54298;52.076;5.264;2023-08-07T01:21:43;9.5;;;2.8;;
67429;SDS011;54298;52.076;5.264;2023-08-07T01:24:59;7.8;;;1.7;;
67429;SDS011;54298;52.076;5.264;2023-08-07T01:28:15;6.0;;;2.4;;
67429;SDS011;54298;52.076;5.264;2023-08-07T01:30:02;8.31;;;2.6;;
67429;SDS011;54298;52.076;5.264;2023-08-07T01:33:31;12.7;;;2.4;;
67429;SDS011;54298;52.076;5.264;2023-08-07T01:35:11;7.8;;;1.9;;
67429;SDS011;54298;52.076;5.264;2023-08-07T01:36:50;8.31;;;2.6;;
67429;SDS011;54298;52.076;5.264;2023-08-07T01:38:29;6.3;;;2.0;;
67429;SDS011;54298;52.076;5.264;2023-08-07T01:41:44;9.0;;;1.8;;
67429;SDS011;54298;52.076;5.264;2023-08-07T01:43:20;8.6;;;2.5;;
67429;SDS011;54298;52.076;5.264;2023-08-07T01:44:56;7.8;;;2.21;;
67429;SDS011;54298;52.076;5.264;2023-08-07T01:48:08;6.2;;;2.1;;
67429;SDS011;54298;52.076;5.264;2023-08-07T01:49:45;6.0;;;2.21;;
67429;SDS011;54298;52.076;5.264;2023-08-07T01:51:21;8.71;;;2.31;;
67429;SDS011;54298;52.076;5.264;2023-08-07T01:52:57;4.91;;;2.1;;
67429;SDS011;54298;52.076;5.264;2023-08-07T01:56:09;6.4;;;2.21;;
67429;SDS011;54298;52.076;5.264;2023-08-07T01:57:45;9.81;;;2.21;;
67429;SDS011;54298;52.076;5.264;2023-08-07T01:59:21;7.0;;;1.7;;
67429;SDS011;54298;52.076;5.264;2023-08-07T02:02:33;8.6;;;2.1;;
67429;SDS011;54298;52.076;5.264;2023-08-07T02:04:10;5.0;;;1.9;;
67429;SDS011;54298;52.076;5.264;2023-08-07T02:05:46;4.3;;;1.7;;
67429;SDS011;54298;52.076;5.264;2023-08-07T02:08:58;4.7;;;2.0;;
67429;SDS011;54298;52.076;5.264;2023-08-07T02:10:34;5.2;;;1.9;;
67429;SDS011;54298;52.076;5.264;2023-08-07T02:12:10;5.3;;;2.1;;
67429;SDS011;54298;52.076;5.264;2023-08-07T02:13:46;6.9;;;2.1;;
67429;SDS011;54298;52.076;5.264;2023-08-07T02:16:58;3.2;;;1.5;;
67429;SDS011;54298;52.076;5.264;2023-08-07T02:18:34;8.1;;;2.21;;
67429;SDS011;54298;52.076;5.264;2023-08-07T02:20:11;8.6;;;2.1;;
67429;SDS011;54298;52.076;5.264;2023-08-07T02:23:23;6.0;;;2.0;;
67429;SDS011;54298;52.076;5.264;2023-08-07T02:24:59;5.6;;;2.21;;
67429;SDS011;54298;52.076;5.264;2023-08-07T02:26:35;7.9;;;2.31;;
67429;SDS011;54298;52.076;5.264;2023-08-07T02:29:47;7.2;;;2.0;;
67429;SDS011;54298;52.076;5.264;2023-08-07T02:31:23;8.4;;;2.31;;
67429;SDS011;54298;52.076;5.264;2023-08-07T02:32:59;4.41;;;2.1;;
67429;SDS011;54298;52.076;5.264;2023-08-07T02:36:12;5.5;;;2.21;;
67429;SDS011;54298;52.076;5.264;2023-08-07T02:37:48;6.2;;;2.31;;
67429;SDS011;54298;52.076;5.264;2023-08-07T02:39:24;11.1;;;2.1;;
67429;SDS011;54298;52.076;5.264;2023-08-07T02:41:01;9.71;;;2.1;;
67429;SDS011;54298;52.076;5.264;2023-08-07T02:44:13;7.8;;;2.1;;
67429;SDS011;54298;52.076;5.264;2023-08-07T02:45:49;5.6;;;2.0;;
67429;SDS011;54298;52.076;5.264;2023-08-07T02:47:25;7.1;;;2.5;;
67429;SDS011;54298;52.076;5.264;2023-08-07T02:50:38;11.4;;;2.9;;
67429;SDS011;54298;52.076;5.264;2023-08-07T02:52:14;9.31;;;2.5;;
67429;SDS011;54298;52.076;5.264;2023-08-07T02:53:50;9.31;;;2.9;;
67429;SDS011;54298;52.076;5.264;2023-08-07T02:57:02;9.6;;;2.21;;
67429;SDS011;54298;52.076;5.264;2023-08-07T02:58:38;11.8;;;2.9;;
67429;SDS011;54298;52.076;5.264;2023-08-07T03:00:14;9.4;;;2.21;;
67429;SDS011;54298;52.076;5.264;2023-08-07T03:03:26;8.2;;;3.0;;
67429;SDS011;54298;52.076;5.264;2023-08-07T03:05:03;5.6;;;2.5;;
67429;SDS011;54298;52.076;5.264;2023-08-07T03:06:40;14.3;;;3.2;;
67429;SDS011;54298;52.076;5.264;2023-08-07T03:08:16;7.8;;;2.31;;
67429;SDS011;54298;52.076;5.264;2023-08-07T03:11:29;8.9;;;2.7;;
67429;SDS011;54298;52.076;5.264;2023-08-07T03:13:05;9.9;;;2.4;;
67429;SDS011;54298;52.076;5.264;2023-08-07T03:14:41;7.5;;;2.9;;
67429;SDS011;54298;52.076;5.264;2023-08-07T03:17:54;8.4;;;2.6;;
67429;SDS011;54298;52.076;5.264;2023-08-07T03:19:30;8.2;;;2.6;;
67429;SDS011;54298;52.076;5.264;2023-08-07T03:21:06;7.7;;;3.2;;
67429;SDS011;54298;52.076;5.264;2023-08-07T03:24:18;8.1;;;2.7;;
67429;SDS011;54298;52.076;5.264;2023-08-07T03:26:01;6.3;;;2.7;;
67429;SDS011;54298;52.076;5.264;2023-08-07T03:27:38;10.1;;;2.6;;
67429;SDS011;54298;52.076;5.264;2023-08-07T03:29:14;8.4;;;3.2;;
67429;SDS011;54298;52.076;5.264;2023-08-07T03:32:27;8.31;;;2.7;;
67429;SDS011;54298;52.076;5.264;2023-08-07T03:34:03;7.5;;;2.6;;
67429;SDS011;54298;52.076;5.264;2023-08-07T03:35:39;5.0;;;2.21;;
67429;SDS011;54298;52.076;5.264;2023-08-07T03:38:52;5.6;;;2.21;;
67429;SDS011;54298;52.076;5.264;2023-08-07T03:40:28;6.7;;;2.9;;
67429;SDS011;54298;52.076;5.264;2023-08-07T03:42:04;11.5;;;3.0;;
67429;SDS011;54298;52.076;5.264;2023-08-07T03:45:16;5.5;;;2.21;;
67429;SDS011;54298;52.076;5.264;2023-08-07T03:46:52;5.9;;;2.1;;
67429;SDS011;54298;52.076;5.264;2023-08-07T03:48:28;5.6;;;2.0;;
67429;SDS011;54298;52.076;5.264;2023-08-07T03:50:05;8.9;;;2.21;;
67429;SDS011;54298;52.076;5.264;2023-08-07T03:53:18;4.3;;;1.9;;
67429;SDS011;54298;52.076;5.264;2023-08-07T03:54:54;4.91;;;1.8;;
67429;SDS011;54298;52.076;5.264;2023-08-07T03:56:30;4.3;;;1.7;;
67429;SDS011;54298;52.076;5.264;2023-08-07T03:59:42;4.61;;;1.8;;
67429;SDS011;54298;52.076;5.264;2023-08-07T04:01:18;4.7;;;1.8;;
67429;SDS011;54298;52.076;5.264;2023-08-07T04:02:54;4.7;;;1.7;;
67429;SDS011;54298;52.076;5.264;2023-08-07T04:06:07;3.9;;;2.0;;
67429;SDS011;54298;52.076;5.264;2023-08-07T04:07:43;5.2;;;2.21;;
67429;SDS011;54298;52.076;5.264;2023-08-07T04:09:19;8.31;;;2.31;;
67429;SDS011;54298;52.076;5.264;2023-08-07T04:10:59;6.0;;;2.6;;
67429;SDS011;54298;52.076;5.264;2023-08-07T04:14:12;4.8;;;2.1;;
67429;SDS011;54298;52.076;5.264;2023-08-07T04:15:48;7.7;;;2.4;;
67429;SDS011;54298;52.076;5.264;2023-08-07T04:17:24;9.4;;;2.6;;
67429;SDS011;54298;52.076;5.264;2023-08-07T04:20:36;5.9;;;2.4;;
67429;SDS011;54298;52.076;5.264;2023-08-07T04:22:13;8.31;;;2.6;;
67429;SDS011;54298;52.076;5.264;2023-08-07T04:23:49;6.6;;;2.6;;
67429;SDS011;54298;52.076;5.264;2023-08-07T04:27:01;9.5;;;2.4;;
67429;SDS011;54298;52.076;5.264;2023-08-07T04:28:37;8.81;;;2.8;;
67429;SDS011;54298;52.076;5.264;2023-08-07T04:30:13;10.1;;;3.3;;
67429;SDS011;54298;52.076;5.264;2023-08-07T04:31:49;7.3;;;2.8;;
67429;SDS011;54298;52.076;5.264;2023-08-07T04:35:01;10.1;;;2.8;;
67429;SDS011;54298;52.076;5.264;2023-08-07T04:36:37;8.9;;;2.21;;
67429;SDS011;54298;52.076;5.264;2023-08-07T04:38:14;8.31;;;2.6;;
67429;SDS011;54298;52.076;5.264;2023-08-07T04:41:26;7.5;;;2.5;;
67429;SDS011;54298;52.076;5.264;2023-08-07T04:43:03;9.71;;;2.5;;
67429;SDS011;54298;52.076;5.264;2023-08-07T04:44:39;8.9;;;2.4;;
67429;SDS011;54298;52.076;5.264;2023-08-07T04:47:51;8.9;;;2.4;;
67429;SDS011;54298;52.076;5.264;2023-08-07T04:49:27;8.4;;;2.6;;
67429;SDS011;54298;52.076;5.264;2023-08-07T04:51:03;4.2;;;2.0;;
67429;SDS011;54298;52.076;5.264;2023-08-07T04:54:16;4.5;;;2.1;;
67429;SDS011;54298;52.076;5.264;2023-08-07T04:55:52;5.4;;;2.4;;
67429;SDS011;54298;52.076;5.264;2023-08-07T04:57:28;7.4;;;2.4;;
67429;SDS011;54298;52.076;5.264;2023-08-07T04:59:04;9.71;;;2.8;;
67429;SDS011;54298;52.076;5.264;2023-08-07T05:02:16;8.31;;;2.4;;
67429;SDS011;54298;52.076;5.264;2023-08-07T05:03:52;9.1;;;2.5;;
67429;SDS011;54298;52.076;5.264;2023-08-07T05:05:28;7.5;;;2.7;;
67429;SDS011;54298;52.076;5.264;2023-08-07T05:08:40;8.81;;;2.7;;
67429;SDS011;54298;52.076;5.264;2023-08-07T05:10:17;9.31;;;2.7;;
67429;SDS011;54298;52.076;5.264;2023-08-07T05:11:53;9.21;;;2.5;;
67429;SDS011;54298;52.076;5.264;2023-08-07T05:15:05;9.0;;;2.7;;
67429;SDS011;54298;52.076;5.264;2023-08-07T05:16:42;9.4;;;2.4;;
67429;SDS011;54298;52.076;5.264;2023-08-07T05:18:18;6.7;;;2.7;;
67429;SDS011;54298;52.076;5.264;2023-08-07T05:21:30;11.3;;;2.8;;
67429;SDS011;54298;52.076;5.264;2023-08-07T05:23:06;7.7;;;3.0;;
67429;SDS011;54298;52.076;5.264;2023-08-07T05:24:43;8.81;;;3.2;;
67429;SDS011;54298;52.076;5.264;2023-08-07T05:26:20;7.8;;;3.2;;
67429;SDS011;54298;52.076;5.264;2023-08-07T05:29:32;11.6;;;2.5;;
67429;SDS011;54298;52.076;5.264;2023-08-07T05:31:08;9.5;;;2.8;;
67429;SDS011;54298;52.076;5.264;2023-08-07T05:32:44;10.4;;;3.1;;
67429;SDS011;54298;52.076;5.264;2023-08-07T05:35:56;8.2;;;3.0;;
67429;SDS011;54298;52.076;5.264;2023-08-07T05:37:32;7.9;;;3.1;;
67429;SDS011;54298;52.076;5.264;2023-08-07T05:39:09;7.4;;;3.0;;
67429;SDS011;54298;52.076;5.264;2023-08-07T05:42:22;7.5;;;2.6;;
67429;SDS011;54298;52.076;5.264;2023-08-07T05:43:58;10.5;;;2.4;;
67429;SDS011;54298;52.076;5.264;2023-08-07T05:45:34;7.3;;;3.1;;
67429;SDS011;54298;52.076;5.264;2023-08-07T05:47:10;7.3;;;3.1;;
67429;SDS011;54298;52.076;5.264;2023-08-07T05:50:22;11.8;;;3.9;;
67429;SDS011;54298;52.076;5.264;2023-08-07T05:51:58;13.4;;;5.5;;
67429;SDS011;54298;52.076;5.264;2023-08-07T05:53:35;14.5;;;7.1;;
67429;SDS011;54298;52.076;5.264;2023-08-07T05:56:47;13.1;;;3.3;;
67429;SDS011;54298;52.076;5.264;2023-08-07T05:58:23;9.0;;;3.1;;
67429;SDS011;54298;52.076;5.264;2023-08-07T05:59:59;6.6;;;2.5;;
67429;SDS011;54298;52.076;5.264;2023-08-07T06:03:11;6.1;;;2.31;;
67429;SDS011;54298;52.076;5.264;2023-08-07T06:04:47;9.81;;;2.7;;
67429;SDS011;54298;52.076;5.264;2023-08-07T06:06:24;11.3;;;3.9;;
67429;SDS011;54298;52.076;5.264;2023-08-07T06:09:36;10.21;;;3.2;;
67429;SDS011;54298;52.076;5.264;2023-08-07T06:11:13;8.2;;;2.6;;
67429;SDS011;54298;52.076;5.264;2023-08-07T06:12:49;7.1;;;3.0;;
67429;SDS011;54298;52.076;5.264;2023-08-07T06:14:25;8.4;;;2.6;;
67429;SDS011;54298;52.076;5.264;2023-08-07T06:17:37;7.9;;;3.1;;
67429;SDS011;54298;52.076;5.264;2023-08-07T06:19:13;7.9;;;3.0;;
67429;SDS011;54298;52.076;5.264;2023-08-07T06:20:49;11.9;;;3.0;;
67429;SDS011;54298;52.076;5.264;2023-08-07T06:24:02;7.6;;;2.9;;
67429;SDS011;54298;52.076;5.264;2023-08-07T06:25:38;12.2;;;3.1;;
67429;SDS011;54298;52.076;5.264;2023-08-07T06:27:14;14.6;;;3.7;;
67429;SDS011;54298;52.076;5.264;2023-08-07T06:30:26;10.6;;;3.2;;
67429;SDS011;54298;52.076;5.264;2023-08-07T06:32:02;10.4;;;3.3;;
67429;SDS011;54298;52.076;5.264;2023-08-07T06:33:39;13.4;;;4.2;;
67429;SDS011;54298;52.076;5.264;2023-08-07T06:35:15;10.5;;;3.4;;
67429;SDS011;54298;52.076;5.264;2023-08-07T06:40:04;7.6;;;3.1;;
67429;SDS011;54298;52.076;5.264;2023-08-07T06:41:41;9.9;;;3.1;;
67429;SDS011;54298;52.076;5.264;2023-08-07T06:44:54;9.4;;;3.2;;
67429;SDS011;54298;52.076;5.264;2023-08-07T06:46:30;8.0;;;3.0;;
67429;SDS011;54298;52.076;5.264;2023-08-07T06:48:06;8.6;;;3.7;;
67429;SDS011;54298;52.076;5.264;2023-08-07T06:51:18;15.6;;;6.0;;
67429;SDS011;54298;52.076;5.264;2023-08-07T06:52:54;11.9;;;5.5;;
67429;SDS011;54298;52.076;5.264;2023-08-07T06:54:30;8.4;;;3.6;;
67429;SDS011;54298;52.076;5.264;2023-08-07T06:57:43;10.4;;;4.1;;
67429;SDS011;54298;52.076;5.264;2023-08-07T06:59:19;6.3;;;2.6;;
67429;SDS011;54298;52.076;5.264;2023-08-07T07:00:55;10.21;;;3.1;;
67429;SDS011;54298;52.076;5.264;2023-08-07T07:02:31;10.4;;;3.2;;
67429;SDS011;54298;52.076;5.264;2023-08-07T07:05:43;13.6;;;4.5;;
67429;SDS011;54298;52.076;5.264;2023-08-07T07:07:19;6.9;;;3.2;;
67429;SDS011;54298;52.076;5.264;2023-08-07T07:08:56;10.6;;;4.0;;
67429;SDS011;54298;52.076;5.264;2023-08-07T07:12:08;9.1;;;3.5;;
67429;SDS011;54298;52.076;5.264;2023-08-07T07:13:44;6.6;;;2.6;;
67429;SDS011;54298;52.076;5.264;2023-08-07T07:15:20;8.5;;;3.1;;
67429;SDS011;54298;52.076;5.264;2023-08-07T07:18:32;11.0;;;3.3;;
67429;SDS011;54298;52.076;5.264;2023-08-07T07:20:08;7.5;;;2.6;;
67429;SDS011;54298;52.076;5.264;2023-08-07T07:21:45;5.4;;;2.4;;
67429;SDS011;54298;52.076;5.264;2023-08-07T07:23:21;10.8;;;2.7;;
67429;SDS011;54298;52.076;5.264;2023-08-07T07:26:35;4.61;;;2.4;;
67429;SDS011;54298;52.076;5.264;2023-08-07T07:28:11;6.0;;;2.6;;
67429;SDS011;54298;52.076;5.264;2023-08-07T07:29:47;5.7;;;2.31;;
67429;SDS011;54298;52.076;5.264;2023-08-07T07:32:59;7.4;;;2.4;;
67429;SDS011;54298;52.076;5.264;2023-08-07T07:34:35;6.3;;;2.1;;
67429;SDS011;54298;52.076;5.264;2023-08-07T07:36:14;6.6;;;2.5;;
67429;SDS011;54298;52.076;5.264;2023-08-07T07:39:27;8.6;;;3.5;;
67429;SDS011;54298;52.076;5.264;2023-08-07T07:41:04;7.9;;;2.7;;
67429;SDS011;54298;52.076;5.264;2023-08-07T07:42:40;6.1;;;2.9;;
67429;SDS011;54298;52.076;5.264;2023-08-07T07:45:52;5.4;;;2.8;;
67429;SDS011;54298;52.076;5.264;2023-08-07T07:47:28;7.4;;;3.3;;
67429;SDS011;54298;52.076;5.264;2023-08-07T07:49:04;5.9;;;2.7;;
67429;SDS011;54298;52.076;5.264;2023-08-07T07:50:40;9.1;;;3.0;;
67429;SDS011;54298;52.076;5.264;2023-08-07T07:53:53;10.0;;;3.3;;
67429;SDS011;54298;52.076;5.264;2023-08-07T07:55:29;8.2;;;3.2;;
67429;SDS011;54298;52.076;5.264;2023-08-07T07:57:05;6.8;;;3.1;;
67429;SDS011;54298;52.076;5.264;2023-08-07T08:00:18;10.7;;;3.2;;
67429;SDS011;54298;52.076;5.264;2023-08-07T08:01:54;7.0;;;3.1;;
67429;SDS011;54298;52.076;5.264;2023-08-07T08:03:30;6.3;;;2.7;;
67429;SDS011;54298;52.076;5.264;2023-08-07T08:06:43;10.0;;;2.8;;
67429;SDS011;54298;52.076;5.264;2023-08-07T08:08:19;7.6;;;3.0;;
67429;SDS011;54298;52.076;5.264;2023-08-07T08:09:56;13.9;;;3.1;;
67429;SDS011;54298;52.076;5.264;2023-08-07T08:11:32;13.1;;;3.6;;
67429;SDS011;54298;52.076;5.264;2023-08-07T08:14:44;9.6;;;3.6;;
67429;SDS011;54298;52.076;5.264;2023-08-07T08:16:20;10.3;;;2.9;;
67429;SDS011;54298;52.076;5.264;2023-08-07T08:17:56;6.6;;;2.8;;
67429;SDS011;54298;52.076;5.264;2023-08-07T08:21:08;6.6;;;2.8;;
67429;SDS011;54298;52.076;5.264;2023-08-07T08:22:44;12.1;;;2.8;;
67429;SDS011;54298;52.076;5.264;2023-08-07T08:24:20;10.0;;;3.0;;
67429;SDS011;54298;52.076;5.264;2023-08-07T08:27:33;5.4;;;2.1;;
67429;SDS011;54298;52.076;5.264;2023-08-07T08:29:09;5.8;;;2.0;;
67429;SDS011;54298;52.076;5.264;2023-08-07T08:30:45;7.4;;;2.6;;
67429;SDS011;54298;52.076;5.264;2023-08-07T08:33:57;6.4;;;2.21;;
67429;SDS011;54298;52.076;5.264;2023-08-07T08:35:33;7.5;;;2.5;;
67429;SDS011;54298;52.076;5.264;2023-08-07T08:37:09;10.0;;;2.7;;
67429;SDS011;54298;52.076;5.264;2023-08-07T08:38:45;6.8;;;2.4;;
67429;SDS011;54298;52.076;5.264;2023-08-07T08:41:59;9.31;;;2.31;;
67429;SDS011;54298;52.076;5.264;2023-08-07T08:43:35;8.71;;;2.5;;
67429;SDS011;54298;52.076;5.264;2023-08-07T08:45:14;10.3;;;2.7;;
67429;SDS011;54298;52.076;5.264;2023-08-07T08:48:28;8.5;;;2.6;;
67429;SDS011;54298;52.076;5.264;2023-08-07T08:50:10;9.31;;;2.6;;
67429;SDS011;54298;52.076;5.264;2023-08-07T08:51:46;9.5;;;3.0;;
67429;SDS011;54298;52.076;5.264;2023-08-07T08:53:22;6.9;;;2.31;;
67429;SDS011;54298;52.076;5.264;2023-08-07T08:56:34;6.4;;;2.5;;
67429;SDS011;54298;52.076;5.264;2023-08-07T08:58:13;6.2;;;2.4;;
67429;SDS011;54298;52.076;5.264;2023-08-07T08:59:51;7.4;;;2.21;;
67429;SDS011;54298;52.076;5.264;2023-08-07T09:03:06;6.7;;;2.4;;
67429;SDS011;54298;52.076;5.264;2023-08-07T09:04:43;5.3;;;2.0;;
67429;SDS011;54298;52.076;5.264;2023-08-07T09:06:19;8.6;;;2.0;;
67429;SDS011;54298;52.076;5.264;2023-08-07T09:09:32;14.2;;;2.5;;
67429;SDS011;54298;52.076;5.264;2023-08-07T09:11:09;5.4;;;2.21;;
67429;SDS011;54298;52.076;5.264;2023-08-07T09:12:49;6.4;;;2.0;;
67429;SDS011;54298;52.076;5.264;2023-08-07T09:14:30;8.81;;;2.21;;
67429;SDS011;54298;52.076;5.264;2023-08-07T09:17:51;8.31;;;2.4;;
67429;SDS011;54298;52.076;5.264;2023-08-07T09:19:29;3.3;;;1.8;;
67429;SDS011;54298;52.076;5.264;2023-08-07T09:21:05;8.2;;;2.6;;
67429;SDS011;54298;52.076;5.264;2023-08-07T09:22:41;8.5;;;2.6;;
67429;SDS011;54298;52.076;5.264;2023-08-07T09:26:01;9.4;;;2.8;;
67429;SDS011;54298;52.076;5.264;2023-08-07T09:27:39;7.8;;;3.1;;
67429;SDS011;54298;52.076;5.264;2023-08-07T09:29:16;9.4;;;2.9;;
67429;SDS011;54298;52.076;5.264;2023-08-07T09:32:28;5.3;;;2.1;;
67429;SDS011;54298;52.076;5.264;2023-08-07T09:34:04;5.7;;;2.21;;
67429;SDS011;54298;52.076;5.264;2023-08-07T09:35:40;6.8;;;2.7;;
67429;SDS011;54298;52.076;5.264;2023-08-07T09:37:16;10.6;;;2.5;;
67429;SDS011;54298;52.076;5.264;2023-08-07T09:40:29;3.7;;;2.0;;
67429;SDS011;54298;52.076;5.264;2023-08-07T09:42:08;7.7;;;3.4;;
67429;SDS011;54298;52.076;5.264;2023-08-07T09:43:49;4.3;;;2.21;;
67429;SDS011;54298;52.076;5.264;2023-08-07T09:47:10;6.6;;;2.1;;
67429;SDS011;54298;52.076;5.264;2023-08-07T09:48:48;6.6;;;2.0;;
67429;SDS011;54298;52.076;5.264;2023-08-07T09:50:24;6.5;;;3.0;;
67429;SDS011;54298;52.076;5.264;2023-08-07T09:52:01;6.9;;;2.8;;
67429;SDS011;54298;52.076;5.264;2023-08-07T09:55:18;7.3;;;2.6;;
67429;SDS011;54298;52.076;5.264;2023-08-07T09:56:54;7.5;;;2.6;;
67429;SDS011;54298;52.076;5.264;2023-08-07T09:58:32;5.7;;;2.31;;
67429;SDS011;54298;52.076;5.264;2023-08-07T10:01:47;7.7;;;2.8;;
67429;SDS011;54298;52.076;5.264;2023-08-07T10:03:24;9.31;;;2.9;;
67429;SDS011;54298;52.076;5.264;2023-08-07T10:05:01;9.0;;;3.2;;
67429;SDS011;54298;52.076;5.264;2023-08-07T10:06:37;7.2;;;2.6;;
67429;SDS011;54298;52.076;5.264;2023-08-07T10:09:49;6.3;;;2.5;;
67429;SDS011;54298;52.076;5.264;2023-08-07T10:11:26;7.2;;;2.7;;
67429;SDS011;54298;52.076;5.264;2023-08-07T10:13:04;5.3;;;2.31;;
67429;SDS011;54298;52.076;5.264;2023-08-07T10:16:17;8.9;;;2.9;;
67429;SDS011;54298;52.076;5.264;2023-08-07T10:17:54;7.6;;;2.6;;
67429;SDS011;54298;52.076;5.264;2023-08-07T10:19:30;14.2;;;3.6;;
67429;SDS011;54298;52.076;5.264;2023-08-07T10:22:43;11.3;;;2.7;;
67429;SDS011;54298;52.076;5.264;2023-08-07T10:24:21;6.8;;;2.31;;
67429;SDS011;54298;52.076;5.264;2023-08-07T10:25:59;5.7;;;2.21;;
67429;SDS011;54298;52.076;5.264;2023-08-07T10:27:38;4.61;;;1.9;;
67429;SDS011;54298;52.076;5.264;2023-08-07T10:30:56;10.9;;;3.5;;
67429;SDS011;54298;52.076;5.264;2023-08-07T10:32:34;6.9;;;2.7;;
67429;SDS011;54298;52.076;5.264;2023-08-07T10:34:11;5.7;;;2.31;;
67429;SDS011;54298;52.076;5.264;2023-08-07T10:37:40;9.31;;;2.5;;
67429;SDS011;54298;52.076;5.264;2023-08-07T10:39:17;8.6;;;4.3;;
67429;SDS011;54298;52.076;5.264;2023-08-07T10:40:58;7.9;;;2.6;;
67429;SDS011;54298;52.076;5.264;2023-08-07T10:42:49;8.2;;;2.21;;
67429;SDS011;54298;52.076;5.264;2023-08-07T10:45:21;8.1;;;2.31;;
67429;SDS011;54298;52.076;5.264;2023-08-07T10:46:58;7.1;;;2.21;;
67429;SDS011;54298;52.076;5.264;2023-08-07T10:48:38;8.0;;;2.31;;
67429;SDS011;54298;52.076;5.264;2023-08-07T10:51:52;5.11;;;2.1;;
67429;SDS011;54298;52.076;5.264;2023-08-07T10:53:29;7.6;;;2.1;;
67429;SDS011;54298;52.076;5.264;2023-08-07T10:55:12;6.4;;;2.31;;
67429;SDS011;54298;52.076;5.264;2023-08-07T10:56:52;6.0;;;2.1;;
67429;SDS011;54298;52.076;5.264;2023-08-07T11:00:09;7.5;;;1.8;;
67429;SDS011;54298;52.076;5.264;2023-08-07T11:01:53;5.9;;;2.0;;
67429;SDS011;54298;52.076;5.264;2023-08-07T11:03:34;6.9;;;1.8;;
67429;SDS011;54298;52.076;5.264;2023-08-07T11:08:24;6.9;;;1.8;;
67429;SDS011;54298;52.076;5.264;2023-08-07T11:10:00;5.9;;;1.8;;
67429;SDS011;54298;52.076;5.264;2023-08-07T11:11:36;6.0;;;2.1;;
67429;SDS011;54298;52.076;5.264;2023-08-07T11:14:49;5.6;;;2.1;;
67429;SDS011;54298;52.076;5.264;2023-08-07T11:16:25;6.0;;;2.0;;
67429;SDS011;54298;52.076;5.264;2023-08-07T11:18:03;4.5;;;1.9;;
67429;SDS011;54298;52.076;5.264;2023-08-07T11:21:17;6.2;;;2.1;;
67429;SDS011;54298;52.076;5.264;2023-08-07T11:22:54;4.1;;;1.7;;
67429;SDS011;54298;52.076;5.264;2023-08-07T11:24:30;4.5;;;1.8;;
67429;SDS011;54298;52.076;5.264;2023-08-07T11:26:06;5.7;;;2.0;;
67429;SDS011;54298;52.076;5.264;2023-08-07T11:30:56;6.5;;;1.9;;
67429;SDS011;54298;52.076;5.264;2023-08-07T11:32:32;6.1;;;2.0;;
67429;SDS011;54298;52.076;5.264;2023-08-07T11:35:47;7.4;;;1.7;;
67429;SDS011;54298;52.076;5.264;2023-08-07T11:37:24;5.2;;;1.8;;
67429;SDS011;54298;52.076;5.264;2023-08-07T11:39:00;5.9;;;2.1;;
67429;SDS011;54298;52.076;5.264;2023-08-07T11:42:12;5.0;;;2.31;;
67429;SDS011;54298;52.076;5.264;2023-08-07T11:43:49;4.8;;;2.1;;
67429;SDS011;54298;52.076;5.264;2023-08-07T11:45:25;6.3;;;2.31;;
67429;SDS011;54298;52.076;5.264;2023-08-07T11:47:02;6.0;;;2.31;;
67429;SDS011;54298;52.076;5.264;2023-08-07T11:50:17;3.9;;;2.0;;
67429;SDS011;54298;52.076;5.264;2023-08-07T11:51:53;5.9;;;2.0;;
67429;SDS011;54298;52.076;5.264;2023-08-07T11:53:30;5.11;;;2.1;;
67429;SDS011;54298;52.076;5.264;2023-08-07T11:56:45;6.9;;;2.1;;
67429;SDS011;54298;52.076;5.264;2023-08-07T11:58:21;5.3;;;1.7;;
67429;SDS011;54298;52.076;5.264;2023-08-07T11:59:59;7.5;;;2.5;;
67429;SDS011;54298;52.076;5.264;2023-08-07T12:01:37;6.9;;;2.5;;
67429;SDS011;54298;52.076;5.264;2023-08-07T12:05:07;5.7;;;2.4;;
67429;SDS011;54298;52.076;5.264;2023-08-07T12:06:52;9.0;;;2.4;;
67429;SDS011;54298;52.076;5.264;2023-08-07T12:08:31;7.6;;;2.31;;
67429;SDS011;54298;52.076;5.264;2023-08-07T12:10:08;8.1;;;3.0;;
67429;SDS011;54298;52.076;5.264;2023-08-07T12:13:24;5.6;;;1.9;;
67429;SDS011;54298;52.076;5.264;2023-08-07T12:15:01;7.8;;;2.1;;
67429;SDS011;54298;52.076;5.264;2023-08-07T12:16:37;2.9;;;1.4;;
67429;SDS011;54298;52.076;5.264;2023-08-07T12:19:50;4.91;;;1.7;;
67429;SDS011;54298;52.076;5.264;2023-08-07T12:21:26;8.2;;;2.1;;
67429;SDS011;54298;52.076;5.264;2023-08-07T12:23:02;4.8;;;2.6;;
67429;SDS011;54298;52.076;5.264;2023-08-07T12:24:38;3.7;;;1.7;;
67429;SDS011;54298;52.076;5.264;2023-08-07T12:27:53;3.8;;;1.7;;
67429;SDS011;54298;52.076;5.264;2023-08-07T12:29:29;4.3;;;1.7;;
67429;SDS011;54298;52.076;5.264;2023-08-07T12:31:05;5.8;;;1.9;;
67429;SDS011;54298;52.076;5.264;2023-08-07T12:34:19;5.3;;;2.1;;
67429;SDS011;54298;52.076;5.264;2023-08-07T12:35:55;4.8;;;2.0;;
67429;SDS011;54298;52.076;5.264;2023-08-07T12:37:32;3.9;;;1.8;;
67429;SDS011;54298;52.076;5.264;2023-08-07T12:40:44;4.61;;;2.4;;
67429;SDS011;54298;52.076;5.264;2023-08-07T12:42:20;6.4;;;2.0;;
67429;SDS011;54298;52.076;5.264;2023-08-07T12:43:56;5.8;;;2.1;;
67429;SDS011;54298;52.076;5.264;2023-08-07T12:45:33;6.3;;;2.1;;
67429;SDS011;54298;52.076;5.264;2023-08-07T12:48:44;9.21;;;3.5;;
67429;SDS011;54298;52.076;5.264;2023-08-07T12:50:21;8.31;;;2.21;;
67429;SDS011;54298;52.076;5.264;2023-08-07T12:51:57;7.8;;;2.7;;
67429;SDS011;54298;52.076;5.264;2023-08-07T12:55:09;7.9;;;2.8;;
67429;SDS011;54298;52.076;5.264;2023-08-07T12:56:46;3.9;;;2.0;;
67429;SDS011;54298;52.076;5.264;2023-08-07T12:58:22;6.7;;;2.1;;
67429;SDS011;54298;52.076;5.264;2023-08-07T13:01:35;7.8;;;3.2;;
67429;SDS011;54298;52.076;5.264;2023-08-07T13:03:11;6.1;;;2.31;;